Time;durP1;ratioP1;P1;durP2;ratioP2;P2;SDS_P1;SDS_P2;PMS_P1;PMS_P2;Temp;Humidity;BMP_temperature;BMP_pressure;BME280_temperature;BME280_humidity;BME280_pressure;Samples;Min_cycle;Max_cycle;Signal;HPM_P1;HPM_P2
2022/08/03 00:01:37;;;;;;;9.60;5.10;;;21.10;1.00;;;;;;6354441;22;20391;-82
2022/08/03 00:04:11;;;;;;;8.43;5.10;;;21.10;1.00;;;;;;6352201;22;20410;-78
2022/08/03 00:06:38;;;;;;;6.80;5.00;;;21.10;1.00;;;;;;6353215;22;20409;-78
2022/08/03 00:09:10;;;;;;;8.63;5.67;;;21.10;1.00;;;;;;6351649;22;20386;-85
2022/08/03 00:11:38;;;;;;;8.87;4.73;;;21.10;1.00;;;;;;6352558;22;20508;-79
2022/08/03 00:14:09;;;;;;;7.67;5.03;;;21.10;1.00;;;;;;6350363;22;20428;-79
2022/08/03 00:16:36;;;;;;;8.30;5.37;;;21.10;1.00;;;;;;6351063;22;20418;-84
2022/08/03 00:19:08;;;;;;;9.70;5.50;;;21.10;1.00;;;;;;6349351;22;20467;-81
2022/08/03 00:21:36;;;;;;;6.47;4.80;;;21.10;1.00;;;;;;6349499;22;20433;-78
2022/08/03 00:24:11;;;;;;;6.90;4.90;;;21.10;1.00;;;;;;6349104;22;20432;-84
2022/08/03 00:26:38;;;;;;;7.83;4.70;;;21.10;1.00;;;;;;6348683;22;20419;-84
2022/08/03 00:29:14;;;;;;;11.53;5.13;;;21.10;1.00;;;;;;6350481;22;20412;-84
2022/08/03 00:31:41;;;;;;;7.07;5.07;;;21.00;1.00;;;;;;6352646;22;20431;-79
2022/08/03 00:34:10;;;;;;;6.77;5.50;;;21.00;1.00;;;;;;6350021;22;20386;-78
2022/08/03 00:36:38;;;;;;;8.10;5.43;;;21.00;1.00;;;;;;6350779;22;20444;-79
2022/08/03 00:39:09;;;;;;;7.40;5.40;;;21.00;1.00;;;;;;6347360;22;20384;-79
2022/08/03 00:41:36;;;;;;;6.20;4.73;;;21.00;1.00;;;;;;6348729;22;20381;-82
2022/08/03 00:44:05;;;;;;;6.87;5.43;;;21.00;1.00;;;;;;6350191;22;20441;-85
2022/08/03 00:46:31;;;;;;;8.27;5.33;;;20.90;1.00;;;;;;6350088;22;20448;-79
2022/08/03 00:48:59;;;;;;;6.67;4.90;;;20.90;1.00;;;;;;6349728;22;20504;-83
2022/08/03 00:51:34;;;;;;;9.07;5.50;;;20.90;1.00;;;;;;6352493;22;20397;-85
2022/08/03 00:54:02;;;;;;;7.40;4.80;;;20.80;1.00;;;;;;6350806;22;20432;-79
2022/08/03 00:56:30;;;;;;;11.53;5.50;;;20.90;1.00;;;;;;6351192;22;20382;-78
2022/08/03 00:58:57;;;;;;;7.60;5.20;;;20.90;1.00;;;;;;6351295;22;20504;-81
2022/08/03 01:01:28;;;;;;;8.43;5.20;;;21.00;1.00;;;;;;6351977;22;20429;-81
2022/08/03 01:03:55;;;;;;;8.60;5.00;;;21.00;1.00;;;;;;6349991;22;20987;-78
2022/08/03 01:06:33;;;;;;;6.63;4.77;;;21.00;1.00;;;;;;6344732;22;20444;-79
2022/08/03 01:09:09;;;;;;;8.00;5.47;;;21.10;1.00;;;;;;6334994;22;20472;-78
2022/08/03 01:11:50;;;;;;;9.20;5.30;;;21.10;1.00;;;;;;6353570;22;20952;-78
2022/08/03 01:14:28;;;;;;;5.70;4.33;;;21.10;1.00;;;;;;6352003;22;20512;-78
2022/08/03 01:17:01;;;;;;;9.50;5.90;;;21.10;1.00;;;;;;6351866;22;20986;-85
2022/08/03 01:19:46;;;;;;;7.27;5.13;;;21.10;1.00;;;;;;6353469;22;20397;-85
2022/08/03 01:23:01;;;;;;;7.13;5.57;;;21.10;1.00;;;;;;6349818;22;20754;-84
2022/08/03 01:25:49;;;;;;;7.27;5.23;;;21.10;1.00;;;;;;6195084;23;20385;-77
2022/08/03 01:28:57;;;;;;;7.50;5.37;;;21.00;1.00;;;;;;6335983;22;20445;-79
2022/08/03 01:31:32;;;;;;;9.87;5.80;;;21.00;1.00;;;;;;6350296;22;20501;-85
2022/08/03 01:34:02;;;;;;;7.50;5.57;;;21.00;1.00;;;;;;6351930;22;20428;-85
2022/08/03 01:36:35;;;;;;;7.93;5.60;;;21.00;1.00;;;;;;6354861;22;20382;-79
2022/08/03 01:39:10;;;;;;;8.23;5.17;;;21.00;1.00;;;;;;6348357;22;21034;-79
2022/08/03 01:41:47;;;;;;;8.00;5.63;;;21.00;1.00;;;;;;6351839;22;20381;-79
2022/08/03 01:44:22;;;;;;;10.60;5.27;;;21.00;1.00;;;;;;6335384;22;20955;-79
2022/08/03 01:46:50;;;;;;;6.90;5.17;;;21.00;1.00;;;;;;6352420;22;20448;-85
2022/08/03 01:49:18;;;;;;;8.03;5.67;;;21.00;1.00;;;;;;6350621;22;20518;-85
2022/08/03 01:51:52;;;;;;;8.97;6.03;;;21.10;1.00;;;;;;6349920;22;20382;-78
2022/08/03 01:54:20;;;;;;;9.43;5.50;;;21.10;1.00;;;;;;6349518;22;20857;-84
2022/08/03 01:56:52;;;;;;;8.30;6.03;;;21.10;1.00;;;;;;6352857;22;20396;-85
2022/08/03 01:59:20;;;;;;;8.93;5.57;;;21.10;1.00;;;;;;6350395;22;20415;-85
2022/08/03 02:01:54;;;;;;;7.33;5.30;;;21.10;1.00;;;;;;6351198;22;20385;-82
2022/08/03 02:04:28;;;;;;;8.63;6.43;;;21.10;1.00;;;;;;6349600;22;20459;-79
2022/08/03 02:06:57;;;;;;;9.97;6.47;;;21.10;1.00;;;;;;6351531;22;20426;-79
2022/08/03 02:09:29;;;;;;;7.20;6.17;;;21.10;1.00;;;;;;6337366;22;20427;-83
2022/08/03 02:12:00;;;;;;;7.23;5.40;;;21.10;1.00;;;;;;6350551;22;20496;-79
2022/08/03 02:14:31;;;;;;;7.60;5.60;;;21.20;1.00;;;;;;6351411;22;20488;-78
2022/08/03 02:17:01;;;;;;;10.13;5.47;;;21.20;1.00;;;;;;6349852;22;20457;-85
2022/08/03 02:19:32;;;;;;;8.70;5.70;;;21.20;1.00;;;;;;6351927;22;20405;-78
2022/08/03 02:22:00;;;;;;;8.10;5.87;;;21.20;1.00;;;;;;6348256;22;20453;-81
2022/08/03 02:24:31;;;;;;;8.07;5.63;;;21.20;1.00;;;;;;6352778;22;20448;-82
2022/08/03 02:26:59;;;;;;;7.50;5.40;;;21.20;1.00;;;;;;6352503;22;20413;-86
2022/08/03 02:29:34;;;;;;;8.60;6.00;;;21.20;1.00;;;;;;6349485;22;20377;-78
2022/08/03 02:32:03;;;;;;;9.50;5.60;;;21.20;1.00;;;;;;6349984;22;20447;-81
2022/08/03 02:34:33;;;;;;;8.83;5.63;;;21.20;1.00;;;;;;6351530;22;21232;-84
2022/08/03 02:37:02;;;;;;;16.93;6.07;;;21.10;1.00;;;;;;6348314;22;20488;-86
2022/08/03 02:39:32;;;;;;;10.40;6.57;;;21.20;1.00;;;;;;6335351;22;20496;-85
2022/08/03 02:42:02;;;;;;;8.00;5.70;;;21.20;1.00;;;;;;6348901;22;20482;-78
2022/08/03 02:44:33;;;;;;;7.10;5.20;;;21.30;1.00;;;;;;6351704;22;20428;-77
2022/08/03 02:47:07;;;;;;;8.30;6.07;;;21.30;1.00;;;;;;6348775;22;20454;-80
2022/08/03 02:49:40;;;;;;;9.50;6.20;;;21.30;1.00;;;;;;6352369;22;21178;-86
2022/08/03 02:52:12;;;;;;;8.67;5.50;;;21.30;1.00;;;;;;6332974;22;20436;-85
2022/08/03 02:54:40;;;;;;;8.20;6.37;;;21.30;1.00;;;;;;6352086;22;20421;-85
2022/08/03 02:57:09;;;;;;;9.97;6.20;;;21.20;1.00;;;;;;6348885;22;20496;-78
2022/08/03 02:59:37;;;;;;;7.93;5.77;;;21.20;1.00;;;;;;6340889;22;20482;-84
2022/08/03 03:02:09;;;;;;;8.37;6.20;;;21.20;1.00;;;;;;6357045;22;20476;-84
2022/08/03 03:04:47;;;;;;;8.53;6.20;;;21.20;1.00;;;;;;6361514;22;20389;-84
2022/08/03 03:07:21;;;;;;;10.07;6.27;;;21.20;1.00;;;;;;6317197;22;20427;-84
2022/08/03 03:09:49;;;;;;;10.63;6.20;;;21.20;1.00;;;;;;6353094;22;20453;-84
2022/08/03 03:12:21;;;;;;;8.40;6.70;;;21.20;1.00;;;;;;6351211;22;20388;-80
2022/08/03 03:14:48;;;;;;;11.90;7.10;;;21.20;1.00;;;;;;6350988;22;20482;-79
2022/08/03 03:17:21;;;;;;;7.97;5.83;;;21.20;1.00;;;;;;6344543;22;21061;-83
2022/08/03 03:19:50;;;;;;;7.90;6.10;;;21.10;1.00;;;;;;6336723;22;20419;-82
2022/08/03 03:22:23;;;;;;;8.60;6.50;;;21.00;1.00;;;;;;6353345;22;20382;-81
2022/08/03 03:24:52;;;;;;;10.30;6.70;;;20.90;1.00;;;;;;6359159;22;20478;-84
2022/08/03 03:27:20;;;;;;;10.77;6.20;;;20.90;1.00;;;;;;6348675;22;20386;-79
2022/08/03 03:29:48;;;;;;;9.73;7.13;;;20.80;1.00;;;;;;6352187;22;20460;-80
2022/08/03 03:32:21;;;;;;;9.60;6.50;;;20.80;1.00;;;;;;6350409;22;20500;-83
2022/08/03 03:34:48;;;;;;;9.43;6.33;;;20.80;1.00;;;;;;6349293;22;20425;-78
2022/08/03 03:37:21;;;;;;;9.40;6.50;;;20.70;1.00;;;;;;6349801;22;20469;-80
2022/08/03 03:39:51;;;;;;;9.20;6.70;;;20.70;1.00;;;;;;6351434;22;20377;-78
2022/08/03 03:42:19;;;;;;;11.30;7.40;;;20.70;1.00;;;;;;6348394;22;20382;-80
2022/08/03 03:44:46;;;;;;;10.77;7.93;;;20.70;1.00;;;;;;6351467;22;20421;-80
2022/08/03 03:47:14;;;;;;;10.03;6.63;;;20.60;1.00;;;;;;6346626;22;20405;-77
2022/08/03 03:49:42;;;;;;;8.43;6.20;;;20.70;1.00;;;;;;6351389;22;20433;-77
2022/08/03 03:52:10;;;;;;;11.83;6.20;;;20.70;1.00;;;;;;6348374;22;20419;-83
2022/08/03 03:54:44;;;;;;;16.37;7.20;;;20.80;1.00;;;;;;6351126;22;20457;-83
2022/08/03 03:57:11;;;;;;;10.77;6.53;;;20.80;1.00;;;;;;6349279;22;20445;-83
2022/08/03 03:59:42;;;;;;;10.30;6.37;;;20.80;1.00;;;;;;6350781;22;20385;-84
2022/08/03 04:02:19;;;;;;;45.50;12.10;;;20.90;1.00;;;;;;6345648;22;20462;-82
2022/08/03 04:13:22;;;;;;;12.57;7.03;;;20.60;1.00;;;;;;6351072;22;20393;-79
2022/08/03 04:15:51;;;;;;;11.87;6.60;;;20.50;1.00;;;;;;6346145;22;20426;-83
2022/08/03 04:18:22;;;;;;;13.03;7.50;;;20.50;1.00;;;;;;6348121;22;20457;-80
2022/08/03 04:20:51;;;;;;;10.50;6.97;;;20.50;1.00;;;;;;6345734;22;21115;-79
2022/08/03 04:23:22;;;;;;;12.73;7.20;;;20.50;1.00;;;;;;6347456;22;20386;-80
2022/08/03 04:25:51;;;;;;;13.23;8.23;;;20.50;1.00;;;;;;6320409;22;20445;-79
2022/08/03 04:28:23;;;;;;;10.97;7.50;;;20.40;1.00;;;;;;6346646;22;20449;-78
2022/08/03 04:30:53;;;;;;;17.97;9.13;;;20.50;1.00;;;;;;6348819;22;20557;-81
2022/08/03 04:33:26;;;;;;;14.40;8.10;;;20.40;1.00;;;;;;6347392;22;20409;-84
2022/08/03 04:36:06;;;;;;;14.80;7.90;;;20.50;1.00;;;;;;6347824;22;20460;-84
2022/08/03 04:38:40;;;;;;;11.73;6.80;;;20.40;1.00;;;;;;6348520;22;20435;-79
2022/08/03 04:41:08;;;;;;;11.07;6.53;;;20.50;1.00;;;;;;6347914;22;21003;-83
2022/08/03 04:43:41;;;;;;;13.37;7.53;;;20.50;1.00;;;;;;6349852;22;20510;-84
2022/08/03 04:46:09;;;;;;;11.10;6.97;;;20.50;1.00;;;;;;6348135;22;20448;-84
2022/08/03 04:48:42;;;;;;;12.77;7.93;;;20.50;1.00;;;;;;6348016;22;20556;-80
2022/08/03 04:51:11;;;;;;;13.20;7.03;;;20.50;1.00;;;;;;6345588;22;20432;-79
2022/08/03 04:53:42;;;;;;;10.70;6.73;;;20.50;1.00;;;;;;6348324;22;20385;-79
2022/08/03 04:56:09;;;;;;;11.30;7.40;;;20.50;1.00;;;;;;6348110;22;20440;-80
2022/08/03 04:58:41;;;;;;;9.90;6.40;;;20.60;1.00;;;;;;6348008;22;20445;-85
2022/08/03 05:01:08;;;;;;;10.73;7.40;;;20.60;1.00;;;;;;6349220;22;20410;-83
2022/08/03 05:03:39;;;;;;;9.90;6.87;;;20.60;1.00;;;;;;6347041;22;20966;-84
2022/08/03 05:06:07;;;;;;;12.70;7.10;;;20.70;1.00;;;;;;6347226;22;20443;-82
2022/08/03 05:08:42;;;;;;;9.73;7.10;;;20.70;1.00;;;;;;6348736;22;20429;-81
2022/08/03 05:11:09;;;;;;;13.83;7.43;;;20.80;1.00;;;;;;6349946;22;20425;-84
2022/08/03 05:13:41;;;;;;;10.23;6.93;;;20.90;1.00;;;;;;6350918;22;20488;-78
2022/08/03 05:16:07;;;;;;;11.23;7.57;;;20.90;1.00;;;;;;6345374;22;20439;-83
2022/08/03 05:18:46;;;;;;;10.50;7.90;;;21.00;1.00;;;;;;6348390;22;20908;-79
2022/08/03 05:21:15;;;;;;;12.60;8.10;;;21.00;1.00;;;;;;6349048;22;20507;-79
2022/08/03 05:23:48;;;;;;;13.30;11.20;;;21.00;1.00;;;;;;6353414;22;20433;-84
2022/08/03 05:26:19;;;;;;;13.13;7.10;;;21.10;1.00;;;;;;6350492;22;20441;-84
2022/08/03 05:28:46;;;;;;;13.00;7.10;;;21.20;1.00;;;;;;6351185;22;20396;-83
2022/08/03 05:31:13;;;;;;;10.50;6.93;;;21.20;1.00;;;;;;6351960;22;20421;-84
2022/08/03 05:33:42;;;;;;;15.40;10.07;;;21.30;1.00;;;;;;6349351;22;20445;-81
2022/08/03 05:36:09;;;;;;;13.10;7.87;;;21.40;1.00;;;;;;6352401;22;20460;-82
2022/08/03 05:38:42;;;;;;;11.73;6.07;;;21.50;1.00;;;;;;6353212;22;20837;-81
2022/08/03 05:41:10;;;;;;;13.00;6.90;;;21.60;1.00;;;;;;6350000;22;20577;-82
2022/08/03 05:43:41;;;;;;;10.97;7.57;;;21.80;1.00;;;;;;6354803;22;20365;-83
2022/08/03 05:46:08;;;;;;;11.07;7.50;;;21.80;1.00;;;;;;6351385;22;20444;-83
2022/08/03 05:48:37;;;;;;;16.63;7.30;;;22.00;1.00;;;;;;6324582;22;20396;-82
2022/08/03 05:51:06;;;;;;;10.77;6.97;;;22.10;1.00;;;;;;6352681;22;20457;-81
2022/08/03 05:53:33;;;;;;;13.37;8.20;;;22.20;1.00;;;;;;6349165;22;20885;-81
2022/08/03 05:56:01;;;;;;;9.83;6.63;;;22.40;1.00;;;;;;6350256;22;20381;-81
2022/08/03 05:58:30;;;;;;;7.77;5.20;;;22.60;1.00;;;;;;6350805;22;20515;-81
2022/08/03 06:01:00;;;;;;;10.67;7.07;;;22.60;1.00;;;;;;6349157;22;20445;-83
2022/08/03 06:03:27;;;;;;;7.23;5.83;;;22.80;1.00;;;;;;6353057;22;20452;-84
2022/08/03 06:05:59;;;;;;;8.70;5.37;;;22.90;1.00;;;;;;6351423;22;20436;-81
2022/08/03 06:08:26;;;;;;;11.80;5.90;;;23.00;1.00;;;;;;6354335;22;20405;-83
2022/08/03 06:10:53;;;;;;;10.93;5.90;;;23.20;1.00;;;;;;6351013;22;20444;-78
2022/08/03 06:13:21;;;;;;;10.27;6.10;;;23.30;1.00;;;;;;6354388;22;20411;-82
2022/08/03 06:15:50;;;;;;;7.33;5.03;;;23.30;1.00;;;;;;6350350;22;20465;-79
2022/08/03 06:18:23;;;;;;;8.00;5.20;;;23.30;1.00;;;;;;6352092;22;20370;-79
2022/08/03 06:20:50;;;;;;;7.47;5.17;;;23.40;1.00;;;;;;6326030;22;20445;-82
2022/08/03 06:23:21;;;;;;;10.83;6.03;;;23.50;1.00;;;;;;6328516;22;20404;-82
2022/08/03 06:25:51;;;;;;;8.60;4.93;;;23.60;1.00;;;;;;6356470;22;20995;-81
2022/08/03 06:28:21;;;;;;;6.90;5.20;;;23.70;1.00;;;;;;6344704;22;20418;-79
2022/08/03 06:30:49;;;;;;;6.60;5.20;;;23.80;1.00;;;;;;6347409;22;20413;-79
2022/08/03 06:33:22;;;;;;;7.37;4.83;;;23.80;1.00;;;;;;6344272;22;20389;-78
2022/08/03 06:35:48;;;;;;;7.67;4.43;;;23.80;1.00;;;;;;6347972;22;20425;-76
2022/08/03 06:38:20;;;;;;;9.47;5.07;;;24.00;1.00;;;;;;6346828;22;20440;-78
2022/08/03 06:40:46;;;;;;;7.40;4.43;;;24.00;1.00;;;;;;6348333;22;20885;-80
2022/08/03 06:43:14;;;;;;;6.60;4.60;;;24.20;1.00;;;;;;6347619;22;20421;-76
2022/08/03 06:45:42;;;;;;;7.80;5.17;;;24.20;1.00;;;;;;6349176;22;20409;-78
2022/08/03 06:48:11;;;;;;;7.37;4.63;;;24.30;1.00;;;;;;6344595;22;20421;-78
2022/08/03 06:50:43;;;;;;;10.30;4.70;;;24.40;1.00;;;;;;6348158;22;20444;-79
2022/08/03 06:53:10;;;;;;;9.27;4.70;;;24.50;1.00;;;;;;6347190;22;20520;-80
2022/08/03 06:55:41;;;;;;;8.97;4.20;;;24.60;1.00;;;;;;6348212;22;20417;-78
2022/08/03 06:58:08;;;;;;;6.13;4.47;;;24.80;1.00;;;;;;6344869;22;20924;-78
2022/08/03 07:00:35;;;;;;;4.73;3.67;;;24.90;1.00;;;;;;6348841;22;20409;-79
2022/08/03 07:03:03;;;;;;;6.10;3.70;;;24.90;1.00;;;;;;6345699;22;20457;-78
2022/08/03 07:05:32;;;;;;;10.23;3.60;;;25.00;1.00;;;;;;6349136;22;20511;-80
2022/08/03 07:08:02;;;;;;;4.87;3.60;;;25.10;1.00;;;;;;6344323;22;20386;-78
2022/08/03 07:10:29;;;;;;;10.43;4.67;;;25.20;1.00;;;;;;6348139;22;20500;-80
2022/08/03 07:13:03;;;;;;;6.13;3.80;;;25.30;1.00;;;;;;6348654;22;20421;-75
2022/08/03 07:15:30;;;;;;;9.60;4.00;;;25.40;1.00;;;;;;6347991;22;20429;-78
2022/08/03 07:18:01;;;;;;;5.77;4.07;;;25.40;1.00;;;;;;6347190;22;20373;-76
2022/08/03 07:20:28;;;;;;;7.47;3.60;;;25.50;1.00;;;;;;6349653;22;20441;-78
2022/08/03 07:23:01;;;;;;;8.00;4.07;;;25.70;1.00;;;;;;6346707;22;20421;-78
2022/08/03 07:25:28;;;;;;;8.27;3.80;;;25.90;1.00;;;;;;6346658;22;20429;-77
2022/08/03 07:27:54;;;;;;;6.53;3.50;;;26.00;1.00;;;;;;6347656;22;20972;-78
2022/08/03 07:30:21;;;;;;;5.37;3.20;;;26.10;1.00;;;;;;6350555;22;21282;-78
2022/08/03 07:32:49;;;;;;;6.07;3.00;;;26.20;1.00;;;;;;6318055;22;20487;-80
2022/08/03 07:35:19;;;;;;;6.70;3.53;;;26.20;1.00;;;;;;6350066;22;20433;-78
2022/08/03 07:37:47;;;;;;;5.37;3.53;;;26.30;1.00;;;;;;6347885;22;20462;-78
2022/08/03 07:40:20;;;;;;;6.20;3.80;;;26.50;1.00;;;;;;6346196;22;20455;-78
2022/08/03 07:42:47;;;;;;;5.60;3.20;;;26.70;1.00;;;;;;6350387;22;20897;-79
2022/08/03 07:45:14;;;;;;;5.40;2.80;;;26.80;1.00;;;;;;6348997;22;20516;-78
2022/08/03 07:47:42;;;;;;;6.03;3.30;;;26.90;1.00;;;;;;6350803;22;20393;-80
2022/08/03 07:50:09;;;;;;;5.90;2.70;;;27.00;1.00;;;;;;6345610;22;20449;-79
2022/08/03 07:52:52;;;;;;;5.40;3.43;;;27.00;1.00;;;;;;6348721;22;20415;-75
2022/08/03 07:55:25;;;;;;;5.13;2.87;;;27.10;1.00;;;;;;6346866;22;20402;-77
2022/08/03 07:58:03;;;;;;;4.40;2.80;;;27.30;1.00;;;;;;6348038;22;20448;-79
2022/08/03 08:00:32;;;;;;;5.20;3.20;;;27.40;1.00;;;;;;6346505;22;20508;-78
2022/08/03 08:03:01;;;;;;;5.50;3.07;;;27.50;1.00;;;;;;6348746;22;20392;-79
2022/08/03 08:05:29;;;;;;;6.50;2.87;;;27.60;1.00;;;;;;6349969;22;20397;-79
2022/08/03 08:07:58;;;;;;;4.17;2.57;;;27.70;1.00;;;;;;6347623;22;20413;-79
2022/08/03 08:10:29;;;;;;;9.40;3.30;;;27.80;1.00;;;;;;6348349;22;20556;-79
2022/08/03 08:13:04;;;;;;;3.77;2.67;;;28.00;1.00;;;;;;6346047;22;20510;-76
2022/08/03 08:15:31;;;;;;;6.90;3.30;;;28.10;1.00;;;;;;6347874;22;20431;-77
2022/08/03 08:18:04;;;;;;;5.70;2.90;;;28.30;1.00;;;;;;6346769;22;20397;-77
2022/08/03 08:20:33;;;;;;;4.53;2.43;;;28.50;1.00;;;;;;6347494;22;20417;-77
2022/08/03 08:23:08;;;;;;;5.80;2.73;;;28.60;1.00;;;;;;6347323;22;20378;-79
2022/08/03 08:25:40;;;;;;;4.00;2.90;;;28.50;1.00;;;;;;6349622;22;20511;-79
2022/08/03 08:28:07;;;;;;;4.60;3.00;;;28.50;1.00;;;;;;6349366;22;20413;-79
2022/08/03 08:30:35;;;;;;;6.60;2.80;;;28.50;1.00;;;;;;6346121;22;20493;-78
2022/08/03 08:33:03;;;;;;;5.47;2.70;;;28.60;1.00;;;;;;6344735;22;20505;-77
2022/08/03 08:35:30;;;;;;;4.70;2.47;;;28.80;1.00;;;;;;6347216;22;20444;-78
2022/08/03 08:38:02;;;;;;;5.40;2.63;;;28.80;1.00;;;;;;6347211;22;20381;-77
2022/08/03 08:40:29;;;;;;;5.87;2.70;;;28.90;1.00;;;;;;6349014;22;20405;-77
2022/08/03 08:43:03;;;;;;;8.97;3.00;;;29.00;1.00;;;;;;6345626;22;20508;-78
2022/08/03 08:45:30;;;;;;;4.60;3.20;;;29.10;1.00;;;;;;6348200;22;20429;-79
2022/08/03 08:48:03;;;;;;;4.70;3.30;;;29.20;1.00;;;;;;6346776;22;20416;-79
2022/08/03 08:50:30;;;;;;;4.20;2.87;;;29.30;1.00;;;;;;6347547;22;20497;-76
2022/08/03 08:53:02;;;;;;;4.57;3.07;;;29.40;1.00;;;;;;6347040;22;20397;-78
2022/08/03 08:55:30;;;;;;;4.03;2.33;;;29.60;1.00;;;;;;6346983;22;20491;-76
2022/08/03 08:58:06;;;;;;;6.50;3.07;;;29.70;1.00;;;;;;6346323;22;20405;-77
2022/08/03 09:00:33;;;;;;;4.13;2.63;;;29.80;1.00;;;;;;6346266;22;20904;-78
2022/08/03 09:03:02;;;;;;;3.10;2.40;;;29.90;1.00;;;;;;6344930;22;20382;-78
2022/08/03 09:05:31;;;;;;;3.90;2.70;;;29.90;1.00;;;;;;6342204;22;20425;-77
2022/08/03 09:08:05;;;;;;;3.67;2.53;;;30.10;1.00;;;;;;6343682;22;20433;-78
2022/08/03 09:10:33;;;;;;;3.80;2.90;;;30.20;1.00;;;;;;6346170;22;20417;-77
2022/08/03 09:13:03;;;;;;;4.33;3.00;;;30.30;1.00;;;;;;6343676;22;20439;-78
2022/08/03 09:15:32;;;;;;;5.33;2.93;;;30.40;1.00;;;;;;6345396;22;20515;-78
2022/08/03 09:18:03;;;;;;;3.47;2.30;;;30.50;1.00;;;;;;6342646;22;20385;-77
2022/08/03 09:20:33;;;;;;;7.00;3.00;;;30.70;1.00;;;;;;6348642;22;20866;-77
2022/08/03 09:23:03;;;;;;;3.87;2.87;;;30.80;1.00;;;;;;6344661;22;20393;-76
2022/08/03 09:25:34;;;;;;;5.17;3.00;;;31.00;1.00;;;;;;6343595;22;20508;-76
2022/08/03 09:28:08;;;;;;;4.40;2.70;;;30.90;1.00;;;;;;6348295;22;20393;-78
2022/08/03 09:30:43;;;;;;;4.90;3.00;;;31.00;1.00;;;;;;6347442;22;20959;-78
2022/08/03 09:33:13;;;;;;;7.93;3.20;;;31.10;1.00;;;;;;6344269;22;20495;-81
2022/08/03 09:35:43;;;;;;;4.70;3.10;;;31.60;1.00;;;;;;6349934;22;20397;-79
2022/08/03 09:38:14;;;;;;;3.93;3.00;;;33.00;1.00;;;;;;6347082;22;20926;-79
2022/08/03 09:40:41;;;;;;;3.50;2.30;;;34.50;1.00;;;;;;6343919;22;20502;-77
2022/08/03 09:43:12;;;;;;;3.70;2.60;;;35.70;1.00;;;;;;6347487;22;20432;-78
2022/08/03 09:45:40;;;;;;;5.53;3.90;;;36.80;1.00;;;;;;6349083;22;20426;-78
2022/08/03 09:48:24;;;;;;;5.53;3.10;;;37.60;1.00;;;;;;6347139;22;20526;-79
2022/08/03 09:50:53;;;;;;;3.50;2.20;;;38.40;1.00;;;;;;6346076;22;20441;-78
2022/08/03 09:53:21;;;;;;;5.73;2.63;;;38.10;1.00;;;;;;6343930;22;20437;-79
2022/08/03 09:55:54;;;;;;;2.40;2.20;;;38.60;1.00;;;;;;6347223;22;20457;-80
2022/08/03 09:58:23;;;;;;;4.60;2.80;;;39.40;1.00;;;;;;6346537;22;20417;-79
2022/08/03 10:01:04;;;;;;;3.53;2.30;;;40.30;1.00;;;;;;6350180;22;20404;-85
2022/08/03 10:03:34;;;;;;;2.87;2.30;;;40.60;1.00;;;;;;6350243;22;20389;-80
2022/08/03 10:06:26;;;;;;;;;;;;;;;;;;;;;
2022/08/03 10:09:14;;;;;;;3.80;2.50;;;41.60;1.00;;;;;;6345707;22;40593;-81
2022/08/03 10:11:45;;;;;;;3.10;2.47;;;41.80;1.00;;;;;;6349941;22;20452;-79
2022/08/03 10:14:18;;;;;;;4.60;2.47;;;42.30;1.00;;;;;;6347846;22;20467;-82
2022/08/03 10:16:48;;;;;;;3.10;2.30;;;42.80;1.00;;;;;;6350787;22;20449;-84
2022/08/03 10:19:20;;;;;;;3.87;2.53;;;42.80;1.00;;;;;;6348620;22;20439;-81
2022/08/03 10:21:55;;;;;;;2.60;2.30;;;42.40;1.00;;;;;;6345146;22;20437;-79
2022/08/03 10:24:26;;;;;;;3.70;1.90;;;42.80;1.00;;;;;;6346069;22;20391;-80
2022/08/03 10:27:01;;;;;;;3.07;2.10;;;43.10;1.00;;;;;;6346764;22;21276;-80
2022/08/03 10:29:30;;;;;;;5.50;2.40;;;42.50;1.00;;;;;;6348728;22;20423;-82
2022/08/03 10:32:13;;;;;;;4.23;3.07;;;42.70;1.00;;;;;;6347319;22;20457;-81
2022/08/03 10:34:44;;;;;;;2.63;2.20;;;43.20;1.00;;;;;;6353661;22;20408;-81
2022/08/03 10:37:13;;;;;;;4.10;2.30;;;43.90;1.00;;;;;;6349062;22;20425;-81
2022/08/03 10:39:52;;;;;;;3.30;2.17;;;43.90;1.00;;;;;;6350758;22;20385;-80
2022/08/03 10:42:24;;;;;;;3.90;2.30;;;44.30;1.00;;;;;;6351351;22;20400;-81
2022/08/03 10:45:04;;;;;;;3.87;2.73;;;44.90;1.00;;;;;;6348832;22;20417;-79
2022/08/03 10:47:32;;;;;;;2.80;2.10;;;45.20;1.00;;;;;;6352489;22;20527;-81
2022/08/03 10:50:02;;;;;;;2.33;1.83;;;44.80;1.00;;;;;;6333399;22;20416;-80
2022/08/03 10:52:32;;;;;;;2.90;2.70;;;44.50;1.00;;;;;;6343068;22;20485;-80
2022/08/03 10:58:43;;;;;;;3.17;2.13;;;43.80;1.00;;;;;;6351709;22;20421;-81
2022/08/03 11:01:12;;;;;;;2.23;1.70;;;44.60;1.00;;;;;;6335021;22;20385;-80
2022/08/03 11:04:16;;;;;;;3.87;2.23;;;44.90;1.00;;;;;;6352022;22;20441;-80
2022/08/03 11:06:45;;;;;;;1.60;1.50;;;45.10;1.00;;;;;;6347105;22;20414;-81
2022/08/03 11:09:18;;;;;;;2.10;1.90;;;45.30;1.00;;;;;;6351320;22;20416;-80
2022/08/03 11:11:53;;;;;;;2.10;1.57;;;45.90;1.00;;;;;;6356161;22;20427;-80
2022/08/03 11:14:45;;;;;;;2.77;1.90;;;46.40;1.00;;;;;;6356036;22;20440;-78
2022/08/03 11:17:14;;;;;;;2.00;1.80;;;46.70;1.00;;;;;;6353169;22;20430;-81
2022/08/03 11:22:55;;;;;;;4.83;2.33;;;46.60;1.00;;;;;;6352594;22;20421;-80
2022/08/03 11:25:36;;;;;;;2.50;2.30;;;46.30;1.00;;;;;;6291901;22;20413;-82
2022/08/03 11:28:38;;;;;;;3.10;2.00;;;46.00;1.00;;;;;;6340391;22;20457;-81
2022/08/03 11:31:45;;;;;;;2.13;1.90;;;45.80;1.00;;;;;;6356012;22;20475;-81
2022/08/03 11:34:18;;;;;;;3.10;2.80;;;46.10;1.00;;;;;;6324729;22;20421;-81
2022/08/03 11:37:21;;;;;;;3.03;2.10;;;46.20;1.00;;;;;;6354810;22;20410;-82
2022/08/03 11:39:53;;;;;;;3.00;2.10;;;46.70;1.00;;;;;;6353157;22;20377;-81
2022/08/03 11:42:44;;;;;;;2.50;2.30;;;47.10;1.00;;;;;;6353640;22;20435;-81
2022/08/03 11:45:13;;;;;;;4.53;1.70;;;47.30;1.00;;;;;;6345262;22;20393;-81
2022/08/03 11:47:51;;;;;;;1.70;1.60;;;47.50;1.00;;;;;;6355132;22;20410;-80
2022/08/03 11:50:20;;;;;;;2.10;2.00;;;47.40;1.00;;;;;;6329349;22;20659;-82
2022/08/03 11:52:54;;;;;;;3.00;2.07;;;47.50;1.00;;;;;;6360174;22;20444;-82
2022/08/03 11:55:21;;;;;;;2.13;2.03;;;47.10;1.00;;;;;;6353185;22;20409;-82
2022/08/03 11:57:52;;;;;;;4.63;2.90;;;47.00;1.00;;;;;;6348830;22;20378;-82
2022/08/03 12:00:32;;;;;;;2.43;1.80;;;46.90;1.00;;;;;;6309399;22;20422;-81
2022/08/03 12:03:05;;;;;;;3.90;2.50;;;47.00;1.00;;;;;;6352140;22;20520;-80
2022/08/03 12:05:56;;;;;;;2.00;1.90;;;47.40;1.00;;;;;;6353269;22;20369;-82
2022/08/03 12:08:35;;;;;;;2.50;2.30;;;47.50;1.00;;;;;;6351034;22;20843;-83
2022/08/03 12:11:07;;;;;;;3.60;3.30;;;48.00;1.00;;;;;;6350644;22;20374;-83
2022/08/03 12:13:39;;;;;;;2.37;1.70;;;48.10;1.00;;;;;;6349609;22;20425;-83
2022/08/03 12:16:11;;;;;;;2.40;2.20;;;47.90;1.00;;;;;;6351295;22;20808;-81
2022/08/03 12:18:38;;;;;;;4.87;2.30;;;47.80;1.00;;;;;;6353447;22;20413;-81
2022/08/03 12:21:15;;;;;;;3.10;2.50;;;47.80;1.00;;;;;;6347140;22;20511;-81
2022/08/03 12:23:42;;;;;;;2.33;2.13;;;47.70;1.00;;;;;;6351418;22;20783;-82
2022/08/03 12:26:12;;;;;;;2.10;1.90;;;47.40;1.00;;;;;;6352934;22;20409;-84
2022/08/03 12:28:52;;;;;;;3.33;2.00;;;47.20;1.00;;;;;;6323343;22;20382;-83
2022/08/03 12:31:23;;;;;;;2.07;1.97;;;47.10;1.00;;;;;;6354662;22;20462;-85
2022/08/03 12:34:03;;;;;;;2.40;2.20;;;47.10;1.00;;;;;;6350251;22;20426;-79
2022/08/03 12:36:41;;;;;;;2.00;1.90;;;47.20;1.00;;;;;;6350788;22;20357;-81
2022/08/03 12:39:13;;;;;;;2.70;2.50;;;47.40;1.00;;;;;;6326587;22;20389;-81
2022/08/03 12:41:43;;;;;;;2.47;1.67;;;47.40;1.00;;;;;;6350768;22;20428;-80
2022/08/03 12:44:13;;;;;;;2.50;1.70;;;47.10;1.00;;;;;;6347745;22;20381;-81
2022/08/03 12:46:43;;;;;;;1.87;1.77;;;46.80;1.00;;;;;;6335021;22;20496;-79
2022/08/03 12:49:20;;;;;;;1.70;1.57;;;46.60;1.00;;;;;;6268820;22;20402;-82
2022/08/03 13:26:15;;;;;;;3.63;2.30;;;48.60;1.00;;;;;;5930087;23;20378;-83
2022/08/03 13:28:42;;;;;;;1.73;1.63;;;48.90;1.00;;;;;;6101438;23;20884;-82
2022/08/03 13:31:13;;;;;;;6.13;1.97;;;49.00;1.00;;;;;;6134649;23;20376;-83
2022/08/03 13:33:40;;;;;;;2.50;1.90;;;48.90;1.00;;;;;;6136364;23;20399;-83
2022/08/03 13:36:11;;;;;;;1.73;1.60;;;48.40;1.00;;;;;;6145767;23;20438;-83
2022/08/03 13:38:39;;;;;;;1.90;1.50;;;47.70;1.00;;;;;;6164170;23;20437;-81
2022/08/03 13:41:11;;;;;;;3.00;2.00;;;47.70;1.00;;;;;;6163850;23;20414;-82
2022/08/03 13:43:39;;;;;;;2.37;2.17;;;48.00;1.00;;;;;;6176580;23;20386;-81
2022/08/03 13:46:11;;;;;;;2.70;2.23;;;48.00;1.00;;;;;;6192288;23;20422;-83
2022/08/03 13:48:38;;;;;;;2.13;2.03;;;48.70;1.00;;;;;;6254006;22;20443;-83
2022/08/03 13:51:11;;;;;;;4.23;2.10;;;49.30;1.00;;;;;;6256723;22;20416;-84
2022/08/03 13:53:38;;;;;;;2.40;2.20;;;49.60;1.00;;;;;;6327368;22;20433;-81
2022/08/03 13:56:14;;;;;;;4.60;2.40;;;50.10;1.00;;;;;;6353782;22;20913;-81
2022/08/03 13:58:45;;;;;;;5.57;2.60;;;50.00;1.00;;;;;;6355433;22;20966;-83
2022/08/03 14:01:13;;;;;;;2.63;2.47;;;50.00;1.00;;;;;;6352069;22;20412;-81
2022/08/03 14:03:40;;;;;;;2.20;1.90;;;50.00;1.00;;;;;;6353887;22;20448;-81
2022/08/03 14:06:09;;;;;;;2.47;2.30;;;50.00;1.00;;;;;;6334848;22;20429;-82
2022/08/03 14:08:38;;;;;;;2.10;1.90;;;49.90;1.00;;;;;;6346275;22;20460;-82